createdAt,value
2018-02-19T00:01:54.084Z,59.62
2018-02-19T00:04:21.548Z,59.67
2018-02-19T00:06:49.039Z,59.87
2018-02-19T00:09:16.810Z,59.87
2018-02-19T00:11:44.323Z,59.95
2018-02-19T00:14:11.829Z,60.02
2018-02-19T00:16:39.733Z,60.25
2018-02-19T00:19:07.353Z,60.04
2018-02-19T00:21:35.075Z,59.79
2018-02-19T00:24:02.543Z,59.58
2018-02-19T00:26:30.014Z,59.38
2018-02-19T00:28:57.503Z,59.27
2018-02-19T00:31:25.087Z,59.16
2018-02-19T00:33:52.730Z,59.13
2018-02-19T00:36:20.274Z,59.71
2018-02-19T00:38:47.728Z,58.71
2018-02-19T00:41:15.193Z,58.87
2018-02-19T00:43:42.701Z,59.19
2018-02-19T00:46:10.218Z,59.47
2018-02-19T00:48:37.773Z,59.58
2018-02-19T00:51:05.241Z,59.74
2018-02-19T00:53:32.697Z,59.60
2018-02-19T00:56:00.166Z,59.81
2018-02-19T00:58:27.649Z,59.56
2018-02-19T01:00:55.148Z,59.61
2018-02-19T01:03:22.626Z,59.45
2018-02-19T01:05:50.129Z,59.42
2018-02-19T01:08:17.665Z,59.44
2018-02-19T01:10:45.114Z,59.50
2018-02-19T01:13:12.606Z,59.35
2018-02-19T01:15:40.105Z,59.61
2018-02-19T01:18:07.969Z,59.65
2018-02-19T01:20:35.601Z,59.54
2018-02-19T01:23:03.032Z,59.42
2018-02-19T01:25:30.502Z,59.31
2018-02-19T01:27:57.993Z,59.50
2018-02-19T01:30:25.450Z,59.16
2018-02-19T01:32:52.971Z,59.03
2018-02-19T01:35:20.439Z,59.04
2018-02-19T01:37:47.906Z,58.87
2018-02-19T01:40:15.366Z,58.59
2018-02-19T01:42:42.878Z,58.66
2018-02-19T01:45:10.814Z,58.46
2018-02-19T01:47:38.397Z,58.34
2018-02-19T01:50:15.763Z,58.43
2018-02-19T01:52:43.290Z,58.27
2018-02-19T01:55:10.863Z,58.31
2018-02-19T01:57:38.331Z,57.92
2018-02-19T02:00:05.789Z,57.96
2018-02-19T02:02:33.303Z,58.09
2018-02-19T02:05:00.820Z,58.14
2018-02-19T02:07:28.332Z,58.22
2018-02-19T02:09:55.847Z,58.10
2018-02-19T02:12:23.363Z,57.98
2018-02-19T02:14:50.886Z,57.99
2018-02-19T02:17:18.393Z,58.02
2018-02-19T02:19:45.873Z,57.96
2018-02-19T02:22:13.366Z,57.94
2018-02-19T02:24:40.863Z,58.02
2018-02-19T02:27:08.527Z,57.87
2018-02-19T02:29:36.023Z,58.11
2018-02-19T02:32:03.549Z,58.24
2018-02-19T02:34:31.031Z,58.08
2018-02-19T02:36:58.428Z,58.10
2018-02-19T02:39:25.923Z,58.42
2018-02-19T02:41:53.423Z,59.09
2018-02-19T02:44:20.871Z,60.33
2018-02-19T02:46:48.428Z,60.72
2018-02-19T02:49:15.868Z,60.71
2018-02-19T02:51:43.326Z,60.54
2018-02-19T02:54:10.783Z,60.70
2018-02-19T02:56:38.284Z,61.07
2018-02-19T02:59:05.751Z,61.23
2018-02-19T03:01:33.243Z,61.59
2018-02-19T03:04:00.716Z,61.74
2018-02-19T03:06:28.186Z,61.78
2018-02-19T03:08:55.694Z,61.87
2018-02-19T03:11:23.179Z,61.92
2018-02-19T03:13:50.647Z,61.89
2018-02-19T03:16:18.145Z,61.90
2018-02-19T03:18:45.620Z,62.11
2018-02-19T03:21:13.065Z,62.23
2018-02-19T03:23:40.528Z,62.27
2018-02-19T03:26:07.994Z,62.25
2018-02-19T03:28:35.994Z,62.29
2018-02-19T03:31:03.555Z,62.53
2018-02-19T03:33:31.026Z,62.54
2018-02-19T03:35:58.500Z,62.61
2018-02-19T03:38:25.891Z,62.67
2018-02-19T03:40:53.436Z,62.82
2018-02-19T03:43:20.932Z,63.05
2018-02-19T03:45:48.352Z,63.25
2018-02-19T03:48:15.851Z,63.59
2018-02-19T03:50:43.588Z,63.51
2018-02-19T03:53:11.463Z,63.38
2018-02-19T03:55:38.982Z,63.26
2018-02-19T03:58:06.439Z,63.31
2018-02-19T04:00:33.972Z,63.20
2018-02-19T04:03:01.958Z,62.82
2018-02-19T04:05:29.499Z,62.65
2018-02-19T04:07:57.075Z,62.73
2018-02-19T04:10:24.568Z,62.65
2018-02-19T04:12:51.995Z,62.80
2018-02-19T04:15:19.518Z,62.74
2018-02-19T04:17:47.097Z,62.69
2018-02-19T04:20:14.619Z,62.86
2018-02-19T04:22:42.130Z,62.77
2018-02-19T04:25:09.531Z,62.92
2018-02-19T04:27:37.072Z,62.90
2018-02-19T04:30:04.579Z,62.96
2018-02-19T04:32:32.086Z,62.88
2018-02-19T04:34:59.610Z,62.97
2018-02-19T04:37:27.192Z,63.22
2018-02-19T04:39:54.659Z,63.35
2018-02-19T04:42:22.132Z,63.32
2018-02-19T04:45:08.459Z,63.25
2018-02-19T04:47:35.987Z,63.55
2018-02-19T04:50:03.511Z,63.34
2018-02-19T04:52:31.017Z,63.20
2018-02-19T04:54:58.544Z,63.13
2018-02-19T04:57:25.996Z,63.28
2018-02-19T04:59:53.458Z,63.35
2018-02-19T05:02:20.915Z,63.29
2018-02-19T05:04:48.389Z,63.28
2018-02-19T05:07:15.892Z,63.46
2018-02-19T05:09:43.432Z,63.41
2018-02-19T05:12:10.905Z,63.20
2018-02-19T05:14:38.410Z,63.33
2018-02-19T05:17:05.898Z,63.54
2018-02-19T05:19:33.692Z,63.75
2018-02-19T05:22:01.246Z,63.45
2018-02-19T05:24:29.140Z,63.26
2018-02-19T05:26:56.669Z,63.15
2018-02-19T05:29:24.185Z,63.06
2018-02-19T05:31:51.784Z,63.01
2018-02-19T05:34:19.511Z,63.23
2018-02-19T05:36:47.090Z,63.33
2018-02-19T05:39:14.535Z,63.21
2018-02-19T05:41:42.029Z,63.39
2018-02-19T05:44:09.551Z,63.36
2018-02-19T05:46:37.030Z,62.94
2018-02-19T05:49:04.448Z,63.11
2018-02-19T05:51:31.951Z,63.12
2018-02-19T05:53:59.594Z,63.95
2018-02-19T05:56:27.077Z,63.28
2018-02-19T05:58:54.589Z,63.20
2018-02-19T06:01:22.134Z,63.44
2018-02-19T06:03:49.641Z,63.15
2018-02-19T06:06:17.144Z,63.10
2018-02-19T06:08:44.642Z,62.95
2018-02-19T06:11:12.141Z,63.08
2018-02-19T06:13:39.648Z,62.66
2018-02-19T06:16:07.284Z,62.64
2018-02-19T06:21:08.600Z,62.70
2018-02-19T06:23:36.098Z,63.14
2018-02-19T06:26:03.500Z,62.80
2018-02-19T06:28:30.950Z,63.01
2018-02-19T06:30:58.427Z,63.08
2018-02-19T06:33:25.953Z,63.13
2018-02-19T06:35:53.529Z,63.27
2018-02-19T06:38:21.078Z,63.38
2018-02-19T06:40:48.720Z,63.63
2018-02-19T06:43:21.253Z,63.66
2018-02-19T06:45:49.931Z,63.66
2018-02-19T06:48:17.456Z,63.57
2018-02-19T06:50:44.939Z,63.55
2018-02-19T06:53:12.490Z,63.48
2018-02-19T06:55:40.019Z,63.58
2018-02-19T06:58:07.538Z,63.38
2018-02-19T07:00:35.050Z,62.98
2018-02-19T07:03:02.650Z,62.71
2018-02-19T07:05:30.160Z,63.08
2018-02-19T07:07:57.662Z,63.01
2018-02-19T07:10:25.095Z,62.91
2018-02-19T07:12:52.550Z,62.71
2018-02-19T07:15:20.091Z,62.18
2018-02-19T07:17:47.608Z,61.77
2018-02-19T07:20:15.366Z,61.38
2018-02-19T07:22:42.896Z,61.29
2018-02-19T07:25:10.417Z,61.18
2018-02-19T07:27:37.908Z,60.84
2018-02-19T07:30:05.393Z,60.96
2018-02-19T07:32:33.304Z,60.83
2018-02-19T07:35:00.786Z,60.54
2018-02-19T07:37:28.266Z,60.40
2018-02-19T07:39:55.774Z,60.12
2018-02-19T07:42:23.249Z,60.12
2018-02-19T07:44:50.726Z,59.88
2018-02-19T07:47:18.204Z,59.66
2018-02-19T07:49:45.723Z,59.38
2018-02-19T07:52:13.190Z,59.27
2018-02-19T07:54:40.747Z,59.27
2018-02-19T07:57:08.262Z,58.93
2018-02-19T07:59:35.823Z,58.74
2018-02-19T08:02:03.295Z,58.57
2018-02-19T08:04:30.772Z,58.63
2018-02-19T08:06:58.259Z,58.67
2018-02-19T08:09:25.866Z,58.33
2018-02-19T08:11:53.369Z,58.32
2018-02-19T08:16:54.510Z,57.45
2018-02-19T08:19:21.971Z,57.15
2018-02-19T08:21:50.463Z,57.39
2018-02-19T08:24:18.111Z,57.04
2018-02-19T08:26:45.658Z,56.57
2018-02-19T08:29:13.106Z,56.62
2018-02-19T08:31:40.683Z,56.64
2018-02-19T08:34:08.171Z,56.74
2018-02-19T08:36:35.727Z,56.07
2018-02-19T08:39:03.271Z,55.67
2018-02-19T08:41:30.808Z,55.52
2018-02-19T08:43:58.878Z,56.17
2018-02-19T08:46:26.383Z,56.07
2018-02-19T08:48:53.831Z,55.58
2018-02-19T08:51:21.395Z,55.70
2018-02-19T08:53:48.916Z,55.68
2018-02-19T08:56:16.413Z,55.41
2018-02-19T08:58:43.910Z,55.54
2018-02-19T09:01:11.503Z,55.43
2018-02-19T09:03:39.028Z,55.36
2018-02-19T09:06:06.666Z,54.92
2018-02-19T09:08:34.187Z,55.13
2018-02-19T09:11:01.854Z,55.17
2018-02-19T09:13:29.386Z,54.83
2018-02-19T09:15:56.788Z,54.41
2018-02-19T09:18:24.277Z,54.34
2018-02-19T09:20:51.683Z,54.25
2018-02-19T09:23:19.193Z,54.08
2018-02-19T09:25:46.885Z,54.16
2018-02-19T09:28:14.414Z,53.97
2018-02-19T09:30:41.898Z,53.95
2018-02-19T09:33:09.410Z,53.65
2018-02-19T09:35:36.941Z,53.09
2018-02-19T09:38:04.462Z,52.92
2018-02-19T09:40:31.943Z,52.61
2018-02-19T09:42:59.460Z,52.81
2018-02-19T09:45:26.939Z,52.39
2018-02-19T09:47:55.143Z,52.05
2018-02-19T09:50:22.613Z,51.95
2018-02-19T09:52:50.155Z,51.50
2018-02-19T09:55:17.715Z,52.15
2018-02-19T09:57:45.179Z,52.39
2018-02-19T10:00:12.699Z,52.63
2018-02-19T10:02:40.562Z,52.83
2018-02-19T10:05:08.123Z,52.71
2018-02-19T10:07:35.679Z,51.92
2018-02-19T10:10:03.693Z,51.58
2018-02-19T10:12:31.227Z,51.25
2018-02-19T10:14:59.574Z,51.00
2018-02-19T10:17:27.037Z,51.39
2018-02-19T10:19:54.576Z,50.97
2018-02-19T10:22:22.170Z,50.50
2018-02-19T10:24:49.825Z,50.47
2018-02-19T10:27:17.376Z,50.46
2018-02-19T10:29:45.206Z,50.60
2018-02-19T10:32:12.670Z,50.44
2018-02-19T10:34:41.176Z,50.58
2018-02-19T10:37:08.686Z,50.53
2018-02-19T10:39:36.221Z,50.57
2018-02-19T10:42:03.674Z,50.85
2018-02-19T10:44:31.192Z,51.02
2018-02-19T10:46:58.692Z,51.18
2018-02-19T10:49:26.094Z,51.24
2018-02-19T10:51:53.893Z,50.89
2018-02-19T10:54:21.414Z,50.68
2018-02-19T10:56:48.918Z,50.44
2018-02-19T10:59:16.666Z,49.96
2018-02-19T11:01:44.184Z,49.54
2018-02-19T11:04:11.761Z,48.96
2018-02-19T11:06:39.266Z,48.62
2018-02-19T11:09:07.740Z,48.28
2018-02-19T11:11:35.315Z,48.41
2018-02-19T11:14:03.984Z,49.40
2018-02-19T11:16:31.497Z,49.73
2018-02-19T11:18:59.001Z,49.24
2018-02-19T11:21:26.507Z,49.65
2018-02-19T11:23:54.004Z,49.53
2018-02-19T11:26:21.581Z,49.52
2018-02-19T11:28:49.211Z,48.75
2018-02-19T11:31:16.755Z,47.94
2018-02-19T11:33:44.420Z,47.36
2018-02-19T11:36:12.014Z,46.70
2018-02-19T11:38:39.452Z,46.03
2018-02-19T11:41:07.313Z,45.77
2018-02-19T11:43:34.820Z,45.13
2018-02-19T11:46:02.446Z,42.87
2018-02-19T11:48:30.035Z,39.36
2018-02-19T11:50:57.623Z,38.31
2018-02-19T11:53:25.702Z,37.78
2018-02-19T11:55:53.403Z,38.17
2018-02-19T11:58:20.924Z,38.03
2018-02-19T12:00:48.614Z,38.27
2018-02-19T12:03:16.144Z,37.05
2018-02-19T12:05:43.714Z,36.61
2018-02-19T12:08:11.267Z,35.45
2018-02-19T12:10:38.756Z,35.21
2018-02-19T12:13:06.310Z,35.37
2018-02-19T12:15:33.912Z,34.74
2018-02-19T12:18:01.425Z,33.92
2018-02-19T12:20:28.941Z,32.67
2018-02-19T12:22:56.426Z,31.22
2018-02-19T12:25:24.827Z,31.17
2018-02-19T12:27:52.273Z,30.85
2018-02-19T12:30:19.798Z,29.74
2018-02-19T12:32:47.352Z,29.56
2018-02-19T12:35:14.760Z,30.67
2018-02-19T12:37:42.429Z,30.88
2018-02-19T12:40:09.978Z,29.59
2018-02-19T12:42:37.450Z,27.54
2018-02-19T12:45:05.045Z,27.83
2018-02-19T12:47:32.516Z,28.64
2018-02-19T12:49:59.993Z,31.79
2018-02-19T12:52:27.549Z,31.92
2018-02-19T12:54:55.058Z,30.59
2018-02-19T12:57:22.635Z,28.32
2018-02-19T12:59:50.171Z,27.59
2018-02-19T13:02:17.663Z,27.57
2018-02-19T13:04:45.174Z,27.32
2018-02-19T13:07:12.700Z,26.70
2018-02-19T13:09:40.265Z,25.83
2018-02-19T13:12:07.749Z,24.54
2018-02-19T13:14:35.268Z,23.95
2018-02-19T13:17:02.832Z,23.72
2018-02-19T13:19:30.393Z,23.61
2018-02-19T13:21:57.967Z,23.52
2018-02-19T13:24:25.458Z,24.08
2018-02-19T13:26:52.924Z,24.34
2018-02-19T13:29:20.430Z,25.13
2018-02-19T13:31:47.977Z,23.95
2018-02-19T13:34:16.042Z,22.71
2018-02-19T13:36:43.515Z,23.09
2018-02-19T13:39:11.058Z,22.47
2018-02-19T13:41:38.579Z,22.56
2018-02-19T13:44:06.100Z,21.69
2018-02-19T13:46:33.595Z,21.56
2018-02-19T13:49:01.184Z,21.04
2018-02-19T13:51:28.617Z,20.22
2018-02-19T13:53:56.433Z,19.59
2018-02-19T13:56:24.347Z,18.86
2018-02-19T13:58:51.905Z,19.19
2018-02-19T14:01:19.456Z,18.27
2018-02-19T14:03:46.950Z,18.16
2018-02-19T14:06:14.639Z,17.14
2018-02-19T14:08:42.164Z,18.71
2018-02-19T14:11:09.650Z,21.15
2018-02-19T14:13:37.166Z,22.31
2018-02-19T14:16:04.698Z,21.47
2018-02-19T14:18:32.323Z,23.12
2018-02-19T14:20:59.899Z,22.48
2018-02-19T14:23:27.292Z,23.61
2018-02-19T14:25:54.757Z,24.09
2018-02-19T14:28:22.439Z,26.27
2018-02-19T14:30:50.511Z,28.10
2018-02-19T14:33:17.987Z,28.24
2018-02-19T14:35:45.503Z,28.39
2018-02-19T14:38:12.984Z,29.73
2018-02-19T14:40:40.371Z,30.46
2018-02-19T14:43:07.927Z,30.99
2018-02-19T14:45:35.388Z,30.26
2018-02-19T14:48:02.977Z,27.25
2018-02-19T14:50:30.405Z,24.86
2018-02-19T14:52:58.063Z,26.69
2018-02-19T14:55:25.616Z,26.73
2018-02-19T14:57:53.199Z,27.69
2018-02-19T15:00:20.700Z,30.10
2018-02-19T15:02:48.223Z,31.12
2018-02-19T15:05:15.801Z,32.14
2018-02-19T15:07:43.206Z,33.64
2018-02-19T15:10:10.739Z,35.71
2018-02-19T15:12:38.212Z,36.67
2018-02-19T15:15:05.740Z,37.34
2018-02-19T15:17:33.305Z,37.71
2018-02-19T15:20:00.885Z,38.44
2018-02-19T15:22:28.362Z,38.46
2018-02-19T15:24:55.883Z,39.23
2018-02-19T15:27:23.331Z,39.57
2018-02-19T15:29:50.990Z,39.92
2018-02-19T15:32:18.558Z,40.02
2018-02-19T15:34:46.073Z,40.50
2018-02-19T15:37:13.573Z,40.83
2018-02-19T15:39:41.298Z,40.50
2018-02-19T15:42:08.795Z,40.86
2018-02-19T15:44:36.258Z,40.99
2018-02-19T15:47:03.752Z,40.92
2018-02-19T15:49:31.204Z,40.17
2018-02-19T15:51:58.711Z,38.87
2018-02-19T15:54:26.692Z,37.20
2018-02-19T15:56:54.285Z,35.87
2018-02-19T15:59:21.757Z,33.83
2018-02-19T16:01:49.428Z,35.13
2018-02-19T16:04:16.913Z,35.89
2018-02-19T16:06:44.374Z,36.67
2018-02-19T16:09:12.141Z,36.79
2018-02-19T16:11:39.599Z,37.42
2018-02-19T16:14:07.103Z,38.78
2018-02-19T16:16:34.598Z,39.24
2018-02-19T16:19:02.119Z,38.68
2018-02-19T16:21:29.673Z,39.13
2018-02-19T16:23:57.162Z,39.48
2018-02-19T16:26:24.739Z,39.99
2018-02-19T16:28:52.287Z,41.16
2018-02-19T16:31:19.792Z,41.79
2018-02-19T16:33:47.315Z,41.32
2018-02-19T16:36:14.922Z,42.10
2018-02-19T16:38:42.441Z,42.93
2018-02-19T16:41:09.905Z,43.65
2018-02-19T16:43:37.361Z,43.88
2018-02-19T16:46:05.677Z,44.52
2018-02-19T16:48:33.272Z,45.51
2018-02-19T16:51:00.875Z,46.30
2018-02-19T16:53:28.515Z,46.68
2018-02-19T16:55:55.928Z,47.39
2018-02-19T16:58:23.430Z,47.73
2018-02-19T17:00:50.963Z,48.17
2018-02-19T17:03:18.446Z,48.04
2018-02-19T17:05:46.038Z,48.06
2018-02-19T17:08:13.463Z,48.46
2018-02-19T17:10:41.790Z,48.84
2018-02-19T17:13:09.343Z,48.85
2018-02-19T17:15:36.910Z,49.10
2018-02-19T17:18:04.419Z,49.23
2018-02-19T17:20:31.958Z,49.68
2018-02-19T17:22:59.418Z,49.76
2018-02-19T17:25:26.937Z,49.82
2018-02-19T17:27:54.384Z,50.00
2018-02-19T17:30:21.844Z,50.06
2018-02-19T17:32:49.363Z,50.17
2018-02-19T17:35:16.945Z,50.40
2018-02-19T17:37:44.488Z,50.38
2018-02-19T17:40:11.989Z,50.78
2018-02-19T17:42:39.429Z,50.99
2018-02-19T17:45:06.948Z,51.15
2018-02-19T17:47:34.404Z,51.67
2018-02-19T17:50:01.898Z,51.77
2018-02-19T17:52:29.432Z,51.55
2018-02-19T17:54:56.900Z,51.46
2018-02-19T17:57:24.387Z,51.25
2018-02-19T17:59:51.899Z,51.13
2018-02-19T18:02:19.439Z,51.06
2018-02-19T18:04:47.130Z,51.01
2018-02-19T18:07:14.711Z,51.03
2018-02-19T18:09:42.439Z,51.15
2018-02-19T18:12:10.361Z,50.93
2018-02-19T18:14:37.838Z,50.69
2018-02-19T18:17:05.293Z,50.62
2018-02-19T18:19:32.808Z,50.82
2018-02-19T18:22:00.321Z,50.99
2018-02-19T18:24:27.886Z,51.00
2018-02-19T18:26:55.518Z,50.70
2018-02-19T18:29:23.210Z,50.93
2018-02-19T18:31:50.725Z,51.59
2018-02-19T18:34:18.256Z,52.63
2018-02-19T18:36:45.798Z,55.42
2018-02-19T18:39:13.398Z,56.63
2018-02-19T18:41:40.865Z,57.53
2018-02-19T18:44:08.415Z,59.01
2018-02-19T18:46:35.928Z,59.85
2018-02-19T18:49:03.382Z,60.15
2018-02-19T18:51:30.907Z,60.58
2018-02-19T18:53:58.456Z,60.69
2018-02-19T18:56:26.697Z,60.52
2018-02-19T18:58:54.491Z,60.76
2018-02-19T19:01:22.002Z,61.17
2018-02-19T19:03:49.668Z,61.17
2018-02-19T19:06:17.172Z,61.18
2018-02-19T19:08:56.541Z,61.34
2018-02-19T19:11:24.075Z,61.41
2018-02-19T19:13:51.620Z,61.46
2018-02-19T19:16:19.292Z,61.53
2018-02-19T19:18:46.836Z,61.57
2018-02-19T19:21:14.331Z,61.59
2018-02-19T19:23:42.045Z,61.60
2018-02-19T19:26:09.692Z,61.73
2018-02-19T19:28:37.244Z,61.72
2018-02-19T19:31:04.920Z,61.69
2018-02-19T19:33:32.546Z,61.53
2018-02-19T19:36:00.060Z,61.46
2018-02-19T19:38:27.637Z,61.47
2018-02-19T19:40:55.164Z,61.71
2018-02-19T19:43:22.821Z,61.88
2018-02-19T19:45:50.274Z,61.96
2018-02-19T19:48:17.892Z,61.94
2018-02-19T19:50:45.650Z,61.96
2018-02-19T19:53:13.125Z,61.98
2018-02-19T19:55:40.646Z,61.74
2018-02-19T19:58:08.163Z,61.93
2018-02-19T20:00:35.853Z,61.60
2018-02-19T20:03:03.415Z,61.60
2018-02-19T20:05:30.877Z,61.74
2018-02-19T20:07:58.346Z,61.70
2018-02-19T20:10:25.828Z,61.67
2018-02-19T20:12:53.476Z,61.63
2018-02-19T20:15:20.957Z,61.75
2018-02-19T20:17:48.660Z,61.68
2018-02-19T20:20:16.512Z,61.52
2018-02-19T20:22:44.496Z,61.45
2018-02-19T20:25:12.021Z,61.60
2018-02-19T20:27:39.533Z,61.71
2018-02-19T20:30:07.796Z,61.63
2018-02-19T20:32:35.277Z,61.64
2018-02-19T20:35:02.805Z,61.49
2018-02-19T20:37:30.976Z,61.34
2018-02-19T20:39:58.381Z,61.25
2018-02-19T20:42:25.935Z,61.21
2018-02-19T20:44:53.414Z,61.35
2018-02-19T20:47:20.921Z,61.36
2018-02-19T20:49:48.400Z,61.62
2018-02-19T20:52:15.974Z,61.63
2018-02-19T20:54:43.754Z,61.48
2018-02-19T20:57:11.277Z,61.53
2018-02-19T20:59:38.894Z,61.69
2018-02-19T21:02:06.430Z,61.86
2018-02-19T21:04:33.945Z,62.00
2018-02-19T21:07:01.467Z,62.15
2018-02-19T21:09:28.922Z,61.90
2018-02-19T21:11:56.401Z,62.03
2018-02-19T21:14:23.914Z,62.39
2018-02-19T21:16:51.469Z,62.61
2018-02-19T21:19:18.993Z,62.10
2018-02-19T21:21:46.601Z,62.23
2018-02-19T21:24:14.082Z,61.87
2018-02-19T21:26:41.551Z,61.84
2018-02-19T21:29:09.063Z,61.70
2018-02-19T21:31:36.571Z,61.33
2018-02-19T21:34:04.149Z,61.13
2018-02-19T21:36:31.947Z,61.09
2018-02-19T21:38:59.468Z,60.87
2018-02-19T21:41:27.138Z,60.35
2018-02-19T21:43:54.658Z,60.44
2018-02-19T21:46:22.175Z,60.81
2018-02-19T21:48:49.710Z,60.83
2018-02-19T21:51:17.144Z,60.90
2018-02-19T21:53:44.735Z,60.77
2018-02-19T21:56:12.242Z,60.86
2018-02-19T21:58:39.727Z,61.21
2018-02-19T22:01:07.267Z,61.56
2018-02-19T22:03:34.730Z,61.96
2018-02-19T22:06:03.445Z,61.89
2018-02-19T22:08:30.977Z,62.23
2018-02-19T22:10:58.507Z,62.31
2018-02-19T22:13:26.020Z,62.60
2018-02-19T22:15:53.455Z,62.69
2018-02-19T22:18:21.219Z,62.46
2018-02-19T22:20:49.037Z,62.34
2018-02-19T22:23:16.542Z,62.54
2018-02-19T22:25:44.106Z,62.58
2018-02-19T22:28:11.638Z,62.47
2018-02-19T22:30:39.077Z,62.72
2018-02-19T22:33:06.559Z,62.86
2018-02-19T22:35:34.021Z,62.90
2018-02-19T22:38:01.624Z,62.85
2018-02-19T22:40:29.118Z,63.01
2018-02-19T22:42:56.696Z,63.00
2018-02-19T22:45:24.157Z,62.92
2018-02-19T22:47:51.684Z,62.77
2018-02-19T22:50:19.203Z,62.84
2018-02-19T22:52:46.661Z,62.84
2018-02-19T22:55:14.113Z,62.73
2018-02-19T22:57:41.606Z,62.58
2018-02-19T23:00:09.128Z,62.57
2018-02-19T23:02:36.654Z,62.54
2018-02-19T23:05:04.110Z,62.72
2018-02-19T23:07:31.647Z,62.97
2018-02-19T23:09:59.104Z,63.10
2018-02-19T23:12:26.679Z,62.84
2018-02-19T23:14:54.141Z,63.04
2018-02-19T23:17:21.586Z,62.92
2018-02-19T23:19:49.109Z,62.80
2018-02-19T23:22:16.593Z,63.14
2018-02-19T23:24:44.098Z,63.36
2018-02-19T23:27:11.570Z,63.21
2018-02-19T23:29:39.119Z,63.10
2018-02-19T23:32:06.636Z,63.09
2018-02-19T23:34:34.170Z,63.18
2018-02-19T23:37:01.659Z,63.41
2018-02-19T23:39:29.269Z,63.51
2018-02-19T23:41:57.120Z,63.67
2018-02-19T23:44:24.625Z,63.58
2018-02-19T23:46:52.254Z,63.28
2018-02-19T23:49:19.934Z,63.00
2018-02-19T23:51:47.477Z,63.16
2018-02-19T23:54:20.028Z,63.35
2018-02-19T23:56:47.470Z,63.67
2018-02-19T23:59:14.980Z,63.67
